Thursday, April 26, 2018, 5:31 AM EDT
Back to Local

KMGJ, Montgomery Orange Co Airport

Location: Montgomery, NY, United States Lat: 41.517
Local Time: 5:31 AM EDT ( 9:31 GMT) Lon: -74.267
Time Zone: US/Eastern Elev: 354 ft

Show me the last for .
Show Decoded

2018-04-26 04:54 METAR KMGJ 260854Z AUTO 27006KT 10SM OVC065 13/10 A2960 RMK AO2 SLP021 T01280100
                 53001 =
2018-04-26 03:54 METAR KMGJ 260754Z AUTO 28006KT 10SM FEW029 BKN065 OVC110 13/11 A2959 RMK AO2
                 SLP019 T01280111 =
2018-04-26 02:54 METAR KMGJ 260654Z AUTO 24006KT 10SM FEW025 OVC049 12/12 A2959 RMK AO2 SLP019
                 T01220117 =
2018-04-26 02:34 METAR KMGJ 260634Z AUTO 21004KT 3SM BR OVC049 12/12 A2959 RMK AO2 T01220117 =
2018-04-26 02:27 METAR KMGJ 260627Z AUTO 00000KT 1 1/4SM BR OVC049 12/11 A2959 RMK AO2 T01170111
                 =
2018-04-26 02:10 METAR KMGJ 260610Z AUTO 00000KT 3/4SM BR SCT049 BKN110 11/11 A2959 RMK AO2
                 T01110111 =
2018-04-26 02:06 METAR KMGJ 260606Z AUTO 00000KT 1 1/2SM BR SCT049 BKN110 12/12 A2959 RMK AO2
                 T01170117 =
2018-04-26 01:54 METAR KMGJ 260554Z AUTO 22003KT 4SM BR FEW002 FEW020 BKN110 12/12 A2959 RMK AO2
                 SLP021 60007 T01220117 10139 20117 56019 =
2018-04-26 01:52 METAR KMGJ 260552Z AUTO 23003KT 3SM BR FEW002 FEW020 BKN110 12/12 A2959 RMK AO2
                 =
2018-04-26 01:49 METAR KMGJ 260549Z AUTO 21004KT 1 1/4SM BR FEW002 SCT055 OVC110 12/12 A2959 RMK
                 AO2 =
2018-04-26 01:40 METAR KMGJ 260540Z AUTO 17003KT 3/4SM BR FEW002 BKN050 OVC110 12/12 A2959 RMK
                 AO2 T01220117 =
2018-04-26 01:25 METAR KMGJ 260525Z AUTO 00000KT 3/4SM BR FEW022 BKN050 OVC100 12/12 A2960 RMK
                 AO2 T01220117 =
2018-04-26 01:18 METAR KMGJ 260518Z AUTO 00000KT 3/4SM BR BKN022 BKN050 OVC100 12/12 A2960 RMK
                 AO2 T01220122 =
2018-04-26 01:07 METAR KMGJ 260507Z AUTO 22003KT 1SM BR SCT004 BKN023 OVC110 13/12 A2960 RMK AO2
                 T01280122 =
2018-04-26 01:01 METAR KMGJ 260501Z AUTO 22003KT 2 1/2SM BR SCT004 OVC023 13/12 A2961 RMK AO2
                 T01280122 =
2018-04-26 00:54 METAR KMGJ 260454Z AUTO 00000KT 5SM BR BKN003 OVC023 13/13 A2961 RMK AO2 RAE05
                 SLP027 P0000 T01280128 401440089 =
2018-04-26 00:52 METAR KMGJ 260452Z AUTO 00000KT 3SM BR BKN003 OVC023 13/13 A2961 RMK AO2 RAE05
                 P0000 =
2018-04-26 00:48 METAR KMGJ 260448Z AUTO 00000KT 1 1/4SM BR BKN003 OVC023 13/13 A2962 RMK AO2
                 RAE05 P0000 =
2018-04-26 00:33 METAR KMGJ 260433Z AUTO 30004KT 1/4SM FG VV003 12/12 A2962 RMK AO2 RAE05 P0000
                 T01220122 =
2018-04-26 00:19 METAR KMGJ 260419Z AUTO 00000KT 3/4SM BR FEW002 FEW065 SCT080 13/12 A2962 RMK
                 AO2 RAE05 P0000 T01280122 =
2018-04-26 00:06 METAR KMGJ 260406Z AUTO 00000KT 1 1/4SM BR FEW003 SCT019 BKN065 13/13 A2962 RMK
                 AO2 RAE05 P0000 T01330128 =
2018-04-25 23:59 METAR KMGJ 260359Z AUTO 00000KT 2SM -RA BR SCT019 BKN065 OVC080 13/13 A2962 RMK
                 AO2 P0000 T01330128 =
2018-04-25 23:54 METAR KMGJ 260354Z AUTO 00000KT 8SM -RA FEW016 BKN022 OVC065 13/13 A2962 RMK AO2
                 RAB0257 SLP032 P0005 T01330128 =
2018-04-25 23:43 METAR KMGJ 260343Z AUTO 00000KT 3SM RA BR FEW009 BKN020 OVC025 13/13 A2963 RMK
                 AO2 RAB0257 P0005 T01330128 =
2018-04-25 23:29 METAR KMGJ 260329Z AUTO 00000KT 3SM -RA BR SCT005 OVC014 14/13 A2963 RMK AO2
                 RAB0257 P0001 T01390133 =
2018-04-25 23:25 METAR KMGJ 260325Z AUTO 00000KT 2 1/2SM -RA BR BKN005 OVC012 14/13 A2963 RMK AO2
                 RAB0257 P0001 T01390133 =
2018-04-25 23:10 METAR KMGJ 260310Z AUTO 00000KT 1 1/2SM -RA BR OVC005 14/13 A2964 RMK AO2
                 RAB0257 P0001 T01390133 =
2018-04-25 22:54 METAR KMGJ 260254Z AUTO 00000KT 1 1/2SM BR OVC004 14/13 A2965 RMK AO2 RAE42
                 SLP040 P0001 60002 T01390133 58004 =
2018-04-25 22:49 METAR KMGJ 260249Z AUTO 00000KT 1 1/2SM BR OVC005 14/13 A2965 RMK AO2 RAE42
                 P0001 =
2018-04-25 22:36 METAR KMGJ 260236Z AUTO 00000KT 2SM -RA BR OVC005 14/13 A2965 RMK AO2 P0001
                 T01390128 =
2018-04-25 22:32 METAR KMGJ 260232Z AUTO 00000KT 1 3/4SM -RA BR OVC004 14/13 A2965 RMK AO2 P0001
                 T01390133 =
2018-04-25 22:06 METAR KMGJ 260206Z AUTO 32003KT 2SM -RA BR OVC004 14/13 A2966 RMK AO2 P0000
                 T01390133 =
2018-04-25 21:54 METAR KMGJ 260154Z AUTO 00000KT 2SM -RA BR BKN002 OVC006 14/13 A2966 RMK AO2
                 SLP044 P0001 T01390133 =
2018-04-25 21:50 METAR KMGJ 260150Z AUTO 00000KT 2SM -RA BR BKN002 OVC006 14/13 A2966 RMK AO2
                 P0001 =
2018-04-25 21:23 METAR KMGJ 260123Z AUTO 01004KT 2 1/2SM -RA BR OVC005 14/13 A2966 RMK AO2 P0000
                 T01390133 =
2018-04-25 20:54 METAR KMGJ 260054Z AUTO 35003KT 2 1/2SM -RA BR OVC003 14/13 A2966 RMK AO2 SLP043
                 P0000 T01390133 =
2018-04-25 20:02 METAR KMGJ 260002Z AUTO 02004KT 3SM -RA BR OVC004 14/13 A2965 RMK AO2 P0000
                 T01390133 =
2018-04-25 19:54 METAR KMGJ 252354Z AUTO 01004KT 2SM -RA BR OVC005 14/13 A2965 RMK AO2 SLP042
                 P0001 60002 T01390133 10144 20133 56006 =
2018-04-25 19:49 METAR KMGJ 252349Z AUTO 01004KT 2SM -RA BR OVC005 14/13 A2966 RMK AO2 P0001 =
2018-04-25 19:25 METAR KMGJ 252325Z AUTO 02005KT 1 3/4SM -RA BR OVC005 14/13 A2966 RMK AO2 CIG
                 003V008 P0001 T01390133 =
2018-04-25 19:07 METAR KMGJ 252307Z AUTO 02005KT 2SM -RA BR OVC003 14/13 A2966 RMK AO2 P0000
                 T01390133 =
2018-04-25 18:54 METAR KMGJ 252254Z AUTO 02005KT 1 3/4SM -RA BR OVC005 14/13 A2966 RMK AO2 CIG
                 003V008 SLP044 P0000 T01390133 =
2018-04-25 18:47 METAR KMGJ 252247Z AUTO 02005KT 1 1/2SM -RA BR OVC006 14/13 A2966 RMK AO2 CIG
                 003V008 P0000 T01390133 =
2018-04-25 18:23 METAR KMGJ 252223Z AUTO 01006KT 2SM -RA BR OVC005 14/13 A2966 RMK AO2 CIG
                 003V008 P0000 T01390133 =
2018-04-25 18:06 METAR KMGJ 252206Z AUTO 35007KT 2 1/2SM -RA BR OVC003 14/13 A2967 RMK AO2 P0000
                 T01390133 =
2018-04-25 17:54 METAR KMGJ 252154Z AUTO 01005KT 3SM -RA BR OVC004 14/13 A2967 RMK AO2 SLP048
                 P0000 T01390133 =
2018-04-25 17:14 METAR KMGJ 252114Z AUTO 02008KT 3SM -RA BR OVC004 14/13 A2967 RMK AO2 CIG
                 003V007 P0000 T01390133 =
2018-04-25 16:54 METAR KMGJ 252054Z AUTO 02008KT 2 1/2SM -RA BR OVC004 14/13 A2969 RMK AO2 CIG
                 003V007 SLP052 P0000 60001 T01440133 56028 =
2018-04-25 16:36 METAR KMGJ 252036Z AUTO 02007KT 2SM -RA BR OVC004 14/13 A2969 RMK AO2 P0000
                 T01390133 =
2018-04-25 16:25 METAR KMGJ 252025Z AUTO 03008KT 1 3/4SM -RA BR OVC004 14/13 A2969 RMK AO2 P0000
                 T01390133 =
2018-04-25 15:54 METAR KMGJ 251954Z AUTO 02008KT 2 1/2SM -RA BR OVC004 14/13 A2971 RMK AO2 SLP059
                 P0000 T01390133 =
2018-04-25 15:20 METAR KMGJ 251920Z AUTO 03008KT 2 1/2SM -RA BR BKN004 OVC012 14/13 A2972 RMK AO2
                 P0000 T01390133 $ =
2018-04-25 14:54 METAR KMGJ 251854Z AUTO 03008KT 7SM -RA BKN006 OVC013 14/13 A2974 RMK AO2 SLP071
                 P0001 T01390133 $ =
2018-04-25 14:40 METAR KMGJ 251840Z AUTO 03007KT 4SM -RA BR BKN007 OVC011 14/13 A2975 RMK AO2
                 P0001 T01390133 $ =
2018-04-25 14:29 METAR KMGJ 251829Z AUTO 03007KT 2SM -RA BR BKN005 OVC012 14/13 A2975 RMK AO2
                 P0001 T01440133 $ =
2018-04-25 14:27 METAR KMGJ 251827Z AUTO 02009KT 1 3/4SM -RA BR SCT005 OVC010 14/13 A2975 RMK AO2
                 P0001 T01390133 $ =
2018-04-25 14:18 METAR KMGJ 251818Z AUTO 03010KT 2 1/2SM -RA BR BKN005 OVC012 14/13 A2976 RMK AO2
                 P0000 T01390128 $ =
2018-04-25 13:54 METAR KMGJ 251754Z AUTO 02008KT 5SM -RA BR OVC006 13/13 A2977 RMK AO2 CIG
                 004V011 SLP081 P0002 60007 T01330128 10133 20094 56037 $ =
2018-04-25 13:29 METAR KMGJ 251729Z AUTO 02009KT 7SM -RA OVC004 13/12 A2978 RMK AO2 P0002
                 T01280117 $ =
2018-04-25 12:53 METAR KMGJ 251653Z AUTO 01008KT 2SM -RA BR BKN004 OVC008 12/12 A2981 RMK AO2
                 SLP094 P0001 T01220117 $ =
2018-04-25 12:52 METAR KMGJ 251652Z AUTO 36009KT 2SM -RA BR BKN004 OVC008 12/12 A2981 RMK AO2
                 P0001 $ =
2018-04-25 12:18 METAR KMGJ 251618Z AUTO 03009KT 3SM -RA BR OVC005 12/11 A2983 RMK AO2 P0000
                 T01220111 $ =
2018-04-25 11:54 METAR KMGJ 251554Z AUTO 02009KT 4SM -RA BR OVC004 12/11 A2984 RMK AO2 SLP105
                 P0000 T01170106 $ =
2018-04-25 11:37 METAR KMGJ 251537Z AUTO 02009KT 3SM -RA BR BKN004 OVC016 12/11 A2986 RMK AO2
                 P0000 T01170106 $ =
2018-04-25 11:25 METAR KMGJ 251525Z AUTO 02010KT 2 1/2SM -RA BR BKN005 BKN009 OVC014 12/11 A2986
                 RMK AO2 P0000 T01170111 $ =
2018-04-25 10:54 METAR KMGJ 251454Z AUTO 02009KT 5SM -RA BR BKN004 OVC013 11/11 A2988 RMK AO2
                 SLP118 P0000 60004 T01110106 56023 $ =
2018-04-25 10:42 METAR KMGJ 251442Z AUTO 03009KT 3SM -RA BR BKN004 OVC015 11/10 A2988 RMK AO2
                 P0000 T01110100 $ =
2018-04-25 10:05 METAR KMGJ 251405Z AUTO 03009KT 2 1/2SM -RA BR OVC005 11/09 A2990 RMK AO2 P0000
                 T01060094 $ =
2018-04-25 09:54 METAR KMGJ 251354Z AUTO 03010KT 4SM -RA BR BKN005 OVC010 11/09 A2990 RMK AO2
                 SLP126 P0001 T01060094 $ =
2018-04-25 09:26 METAR KMGJ 251326Z AUTO 02010KT 3SM -RA BR BKN005 OVC010 10/09 A2991 RMK AO2 CIG
                 004V008 P0000 T01000094 $ =
2018-04-25 09:20 METAR KMGJ 251320Z AUTO 02010KT 2 1/2SM -RA BR OVC004 10/09 A2991 RMK AO2 P0000
                 T01000094 $ =
2018-04-25 09:04 METAR KMGJ 251304Z AUTO 02010KT 5SM -RA BR OVC004 10/09 A2992 RMK AO2 P0000
                 T01000089 $ =
2018-04-25 08:54 METAR KMGJ 251254Z AUTO 03011KT 2 1/2SM -RA BR OVC004 10/09 A2992 RMK AO2 SLP133
                 P0003 T01000089 $ =
2018-04-25 08:46 METAR KMGJ 251246Z AUTO 02011KT 2SM -RA BR OVC004 10/09 A2993 RMK AO2 VIS 1
                 3/4V2 1/2 CIG 003V007 P0002 T01000089 $ =
2018-04-25 08:38 METAR KMGJ 251238Z AUTO 03011KT 3SM -RA BR OVC005 10/09 A2993 RMK AO2 CIG
                 004V007 P0002 T01000089 $ =
2018-04-25 08:26 METAR KMGJ 251226Z AUTO 02009KT 2 1/2SM -RA BR OVC005 09/09 A2994 RMK AO2 CIG
                 004V009 P0001 T00940089 $ =
2018-04-25 07:54 METAR KMGJ 251154Z AUTO 03011KT 4SM -RA BR OVC007 09/08 A2995 RMK AO2 CIG
                 004V009 SLP142 P0002 60010 70022 T00940083 10094 20089 56014 $ =
2018-04-25 07:49 METAR KMGJ 251149Z AUTO 02011KT 2 1/2SM -RA BR OVC007 09/08 A2995 RMK AO2 CIG
                 004V009 P0002 $ =
2018-04-25 07:25 METAR KMGJ 251125Z AUTO 03010KT 3SM -RA BR OVC006 09/08 A2996 RMK AO2 CIG
                 004V010 P0002 T00890083 $ =
2018-04-25 07:03 METAR KMGJ 251103Z AUTO 02012KT 2 1/2SM -RA BR OVC004 09/08 A2997 RMK AO2 P0000
                 T00890083 $ =
2018-04-25 06:54 METAR KMGJ 251054Z AUTO 03011KT 3SM -RA BR OVC004 09/08 A2997 RMK AO2 CIG
                 003V009 SLP150 P0002 T00890083 =
2018-04-25 05:54 METAR KMGJ 250954Z AUTO 04010KT 5SM -RA BR OVC008 09/08 A2999 RMK AO2 RAB21 CIG
                 004V010 SLP155 P0000 T00890083 =

Support USWX by starting your Amazon purchase here.